< < Back
Terminal Aerodrome Forecast


Current Version              Previous Versions:   1  2  3  4  5  6  7  8  9  

Terminal Aerodrome Forecast

188
FTUS42 KTAE 260534
TAFTLH
TAF
KTLH 260534Z 2606/2706 23003KT 4SM BR SCT004
      TEMPO 2606/2610 1SM BR VV004
     FM261300 27010KT P6SM SCT025
     FM261800 27011G16KT P6SM SCT040=

Latest METAR

390
SAUS80 KWBC 261700
MTRTLH
METAR KTLH 261653Z 27006KT 10SM FEW025 FEW095 29/19 A2975 RMK AO2 SLP074
T02940194 $


USA.gov is the U.S. government's official web portal to all federal, state and local government web resources and services.